Time;durP1;ratioP1;P1;durP2;ratioP2;P2;SDS_P1;SDS_P2;PMS_P1;PMS_P2;Temp;Humidity;BMP_temperature;BMP_pressure;BME280_temperature;BME280_humidity;BME280_pressure;Samples;Min_cycle;Max_cycle;Signal;HPM_P1;HPM_P2
2023/07/07 00:00:34;;;;;;;7.37;3.30;;;;;;;14.36;100.00;101735.03;4963923;28;20113;-86
2023/07/07 00:03:00;;;;;;;8.35;3.90;;;;;;;14.34;100.00;101730.84;4964002;28;20057;-88
2023/07/07 00:05:32;;;;;;;5.93;3.80;;;;;;;14.33;100.00;101732.72;4979724;28;20093;-86
2023/07/07 00:07:57;;;;;;;6.65;3.72;;;;;;;14.28;100.00;101737.19;4979478;28;20043;-87
2023/07/07 00:10:23;;;;;;;5.77;3.80;;;;;;;14.21;100.00;101727.13;4963389;28;20038;-87
2023/07/07 00:12:48;;;;;;;5.45;4.07;;;;;;;14.15;100.00;101736.19;4995856;28;20042;-87
2023/07/07 00:15:14;;;;;;;6.63;3.80;;;;;;;14.11;100.00;101737.66;4963520;28;20038;-87
2023/07/07 00:17:41;;;;;;;9.95;4.00;;;;;;;14.07;100.00;101732.88;4963948;28;20038;-87
2023/07/07 00:20:09;;;;;;;7.63;4.00;;;;;;;14.00;100.00;101735.63;4979314;28;20383;-87
2023/07/07 00:22:35;;;;;;;9.00;3.75;;;;;;;13.96;100.00;101740.66;4997063;28;20023;-87
2023/07/07 00:25:06;;;;;;;9.23;4.18;;;;;;;13.91;100.00;101740.50;4979731;28;20080;-87
2023/07/07 00:27:31;;;;;;;8.17;4.17;;;;;;;13.88;100.00;101735.47;4996994;28;20463;-87
2023/07/07 00:29:57;;;;;;;8.00;4.10;;;;;;;13.88;100.00;101740.94;4997006;28;20037;-87
2023/07/07 00:32:23;;;;;;;6.13;3.67;;;;;;;13.86;100.00;101730.25;4979433;28;20034;-87
2023/07/07 00:34:48;;;;;;;6.95;3.60;;;;;;;13.84;100.00;101732.31;4978846;28;20129;-87
2023/07/07 00:37:14;;;;;;;6.57;3.63;;;;;;;13.82;100.00;101736.34;4995512;28;20054;-87
2023/07/07 00:39:41;;;;;;;5.90;4.03;;;;;;;13.81;100.00;101742.84;4979505;28;20030;-87
2023/07/07 00:42:10;;;;;;;6.47;4.50;;;;;;;13.77;100.00;101739.69;4979438;28;20565;-87
2023/07/07 00:45:13;;;;;;;8.73;3.95;;;;;;;13.77;100.00;101738.88;4979241;28;20030;-87
2023/07/07 00:48:01;;;;;;;7.00;3.95;;;;;;;13.76;100.00;101737.19;4978738;28;20037;-87
2023/07/07 00:50:32;;;;;;;8.20;3.97;;;;;;;13.73;100.00;101743.94;4995236;28;20023;-87
2023/07/07 00:52:57;;;;;;;6.80;4.18;;;;;;;13.73;100.00;101735.75;4995275;28;20033;-87
2023/07/07 00:55:32;;;;;;;6.93;4.50;;;;;;;13.67;100.00;101737.44;4962965;28;20030;-87
2023/07/07 00:58:05;;;;;;;7.68;4.18;;;;;;;13.66;100.00;101734.91;4994924;28;20030;-87
2023/07/07 01:00:33;;;;;;;7.07;4.20;;;;;;;13.65;100.00;101741.41;4978942;28;20570;-87
2023/07/07 01:03:09;;;;;;;5.18;3.78;;;;;;;13.65;100.00;101746.88;4996083;28;20034;-88
2023/07/07 01:05:37;;;;;;;7.53;4.30;;;;;;;13.62;100.00;101745.41;4978666;28;20054;-87
2023/07/07 01:08:06;;;;;;;7.32;3.75;;;;;;;13.62;100.00;101750.03;4947298;28;20383;-87
2023/07/07 01:10:32;;;;;;;8.15;4.10;;;;;;;13.64;100.00;101750.63;4978519;28;20474;-87
2023/07/07 01:12:59;;;;;;;6.87;4.13;;;;;;;13.62;100.00;101748.13;4978637;28;20062;-87
2023/07/07 01:15:30;;;;;;;6.25;3.80;;;;;;;13.61;100.00;101748.34;4962569;28;20030;-87
2023/07/07 01:18:13;;;;;;;8.55;4.45;;;;;;;13.60;100.00;101755.69;4995173;28;20088;-87
2023/07/07 01:20:46;;;;;;;7.50;4.22;;;;;;;13.54;100.00;101752.97;4978895;28;20088;-87
2023/07/07 01:23:43;;;;;;;7.13;4.00;;;;;;;13.47;100.00;101748.38;4994592;28;20077;-86
2023/07/07 01:26:22;;;;;;;7.47;4.23;;;;;;;13.48;100.00;101752.78;4995992;28;20073;-86
2023/07/07 01:29:18;;;;;;;9.55;4.85;;;;;;;13.43;100.00;101747.13;4978359;28;20038;-87
2023/07/07 01:31:58;;;;;;;6.30;4.28;;;;;;;13.39;100.00;101745.03;4979243;28;20073;-87
2023/07/07 01:34:26;;;;;;;8.48;4.47;;;;;;;13.41;100.00;101751.97;4979097;28;20053;-86
2023/07/07 01:36:52;;;;;;;9.32;4.28;;;;;;;13.41;100.00;101745.69;4977952;28;20033;-87
2023/07/07 01:39:17;;;;;;;7.47;4.50;;;;;;;13.37;100.00;101744.41;4994400;28;20117;-86
2023/07/07 01:41:56;;;;;;;8.27;4.07;;;;;;;13.36;100.00;101740.88;4946167;28;20026;-86
2023/07/07 01:44:32;;;;;;;7.22;4.13;;;;;;;13.34;100.00;101745.69;4994343;28;20057;-86
2023/07/07 01:47:18;;;;;;;7.80;4.20;;;;;;;13.30;100.00;101745.25;4977716;28;20033;-86
2023/07/07 01:49:57;;;;;;;7.38;4.40;;;;;;;13.28;100.00;101749.22;4994157;28;20031;-87
2023/07/07 01:52:45;;;;;;;7.13;4.07;;;;;;;13.27;100.00;101755.72;4994435;28;20034;-86
2023/07/07 01:55:26;;;;;;;7.63;4.17;;;;;;;13.26;100.00;101743.16;4976338;28;20125;-86
2023/07/07 01:57:55;;;;;;;8.77;4.13;;;;;;;13.21;100.00;101743.75;4978309;28;20034;-87
2023/07/07 02:00:26;;;;;;;8.15;4.28;;;;;;;13.16;100.00;101741.69;4977355;28;20035;-87
2023/07/07 02:02:52;;;;;;;6.97;4.32;;;;;;;13.13;100.00;101746.72;4977696;28;20034;-87
2023/07/07 02:05:18;;;;;;;7.83;4.23;;;;;;;13.14;100.00;101745.69;4994994;28;20050;-87
2023/07/07 02:07:43;;;;;;;8.25;4.40;;;;;;;13.13;100.00;101744.81;4977652;28;20438;-87
2023/07/07 02:10:11;;;;;;;11.90;4.00;;;;;;;13.10;100.00;101745.25;4978078;28;20101;-87
2023/07/07 02:12:37;;;;;;;7.13;4.70;;;;;;;13.03;100.00;101736.25;4945840;28;20288;-87
2023/07/07 02:15:05;;;;;;;6.90;4.13;;;;;;;13.04;100.00;101740.66;4993717;28;20026;-87
2023/07/07 02:17:31;;;;;;;6.50;4.57;;;;;;;13.03;100.00;101738.97;4961637;28;20035;-87
2023/07/07 02:19:56;;;;;;;8.37;4.10;;;;;;;12.99;100.00;101737.69;4960990;28;20112;-87
2023/07/07 02:22:22;;;;;;;8.17;4.50;;;;;;;12.97;100.00;101737.91;4993546;28;20120;-87
2023/07/07 02:24:48;;;;;;;8.70;4.38;;;;;;;12.98;100.00;101733.31;4994486;28;20030;-87
2023/07/07 02:27:14;;;;;;;11.13;4.63;;;;;;;12.96;100.00;101729.94;4961092;28;20057;-87
2023/07/07 02:29:42;;;;;;;7.13;4.03;;;;;;;12.93;100.00;101733.94;4993055;28;20031;-87
2023/07/07 02:32:08;;;;;;;9.00;4.55;;;;;;;12.91;100.00;101740.66;4960855;28;20041;-87
2023/07/07 02:34:35;;;;;;;8.07;4.20;;;;;;;12.87;100.00;101740.22;4977221;28;20046;-87
2023/07/07 02:37:01;;;;;;;6.43;4.30;;;;;;;12.84;100.00;101737.06;4993007;28;20034;-87
2023/07/07 02:39:29;;;;;;;6.30;4.03;;;;;;;12.85;100.00;101736.88;4994805;28;20033;-87
2023/07/07 02:41:54;;;;;;;7.30;3.90;;;;;;;12.78;100.00;101745.06;4994280;28;20063;-86
2023/07/07 02:44:26;;;;;;;8.17;4.07;;;;;;;12.73;100.00;101730.38;4993048;28;20129;-87
2023/07/07 02:46:52;;;;;;;7.90;4.30;;;;;;;12.71;100.00;101736.03;4977201;28;20467;-87
2023/07/07 02:49:35;;;;;;;7.37;4.30;;;;;;;12.69;100.00;101738.09;4960999;28;20041;-87
2023/07/07 02:52:01;;;;;;;6.32;4.00;;;;;;;12.66;100.00;101749.41;4946823;28;20058;-87
2023/07/07 02:54:26;;;;;;;6.78;4.13;;;;;;;12.66;100.00;101746.69;4993113;28;20069;-87
2023/07/07 02:56:53;;;;;;;5.73;3.60;;;;;;;12.63;100.00;101747.13;4976774;28;20031;-87
2023/07/07 02:59:18;;;;;;;6.38;4.07;;;;;;;12.64;100.00;101746.06;4992681;28;20026;-87
2023/07/07 03:01:44;;;;;;;7.10;4.33;;;;;;;12.60;100.00;101748.34;4993841;28;20033;-87
2023/07/07 03:04:10;;;;;;;7.57;4.43;;;;;;;12.61;100.00;101757.38;4960438;28;20483;-87
2023/07/07 03:06:36;;;;;;;6.72;3.95;;;;;;;12.57;100.00;101756.94;4992262;28;20061;-87
2023/07/07 03:09:02;;;;;;;6.27;3.90;;;;;;;12.55;100.00;101753.59;4976756;28;20038;-86
2023/07/07 03:11:27;;;;;;;7.40;4.03;;;;;;;12.54;100.00;101756.53;4975694;28;20497;-86
2023/07/07 03:13:55;;;;;;;6.77;4.17;;;;;;;12.53;100.00;101761.09;4959936;28;20099;-87
2023/07/07 03:16:23;;;;;;;6.43;4.70;;;;;;;12.53;100.00;101765.72;4960132;28;20039;-86
2023/07/07 03:18:52;;;;;;;9.23;4.40;;;;;;;12.50;100.00;101763.41;4993090;28;20117;-86
2023/07/07 03:21:19;;;;;;;6.73;4.20;;;;;;;12.45;100.00;101759.44;4992100;28;20023;-87
2023/07/07 03:23:44;;;;;;;6.22;4.35;;;;;;;12.44;100.00;101757.75;4975584;28;20030;-86
2023/07/07 03:26:15;;;;;;;7.97;4.57;;;;;;;12.43;100.00;101758.81;4975801;28;20390;-87
2023/07/07 03:28:41;;;;;;;7.63;4.50;;;;;;;12.36;100.00;101763.38;4992257;28;20034;-87
2023/07/07 03:31:22;;;;;;;9.18;4.60;;;;;;;12.35;100.00;101760.88;4992101;28;20038;-87
2023/07/07 03:33:48;;;;;;;7.80;4.03;;;;;;;12.34;100.00;101757.31;4975918;28;20041;-87
2023/07/07 03:36:14;;;;;;;7.50;4.45;;;;;;;12.32;100.00;101755.84;4993418;28;20030;-87
2023/07/07 03:38:40;;;;;;;9.30;4.13;;;;;;;12.32;100.00;101758.56;4993652;28;20453;-86
2023/07/07 03:41:09;;;;;;;11.20;4.27;;;;;;;12.31;100.00;101763.16;4975606;28;20404;-86
2023/07/07 03:43:35;;;;;;;6.97;3.85;;;;;;;12.32;100.00;101764.00;4992013;28;20022;-86
2023/07/07 03:46:01;;;;;;;6.38;3.90;;;;;;;12.29;100.00;101754.38;4993611;28;20026;-86
2023/07/07 03:48:30;;;;;;;9.13;4.65;;;;;;;12.29;100.00;101762.53;4991648;28;20459;-87
2023/07/07 03:51:01;;;;;;;6.93;4.33;;;;;;;12.32;100.00;101762.13;4959805;28;20069;-86
2023/07/07 03:53:28;;;;;;;7.03;4.38;;;;;;;12.33;100.00;101768.38;4991990;28;20030;-87
2023/07/07 03:55:55;;;;;;;6.47;4.28;;;;;;;12.32;100.00;101759.41;4975395;28;20037;-86
2023/07/07 03:58:22;;;;;;;8.60;4.68;;;;;;;12.37;100.00;101756.06;4991278;28;20038;-86
2023/07/07 04:00:48;;;;;;;6.88;4.45;;;;;;;12.39;100.00;101760.25;4975335;28;20189;-86
2023/07/07 04:03:14;;;;;;;5.70;3.83;;;;;;;12.42;100.00;101756.28;4991198;28;20101;-87
2023/07/07 04:05:44;;;;;;;9.18;4.18;;;;;;;12.45;100.00;101766.75;4949043;28;1261459;-86
2023/07/07 04:08:10;;;;;;;5.97;3.92;;;;;;;12.46;100.00;101766.56;4976956;28;20077;-86
2023/07/07 04:10:35;;;;;;;7.30;3.73;;;;;;;12.50;100.00;101764.25;4976151;28;20023;-86
2023/07/07 04:13:01;;;;;;;11.75;4.63;;;;;;;12.53;100.00;101765.72;4994213;28;20058;-86
2023/07/07 04:15:26;;;;;;;5.67;4.13;;;;;;;12.55;100.00;101760.91;4976174;28;20034;-86
2023/07/07 04:17:52;;;;;;;9.60;4.50;;;;;;;12.58;100.00;101764.06;4977707;28;20085;-86
2023/07/07 04:20:17;;;;;;;9.80;5.20;;;;;;;12.63;100.00;101771.63;4996770;28;20637;-86
2023/07/07 04:22:43;;;;;;;10.52;5.05;;;;;;;12.65;100.00;101769.50;4996114;28;20125;-87
2023/07/07 04:25:18;;;;;;;9.90;4.93;;;;;;;12.70;100.00;101777.91;4979602;28;20039;-86
2023/07/07 04:27:45;;;;;;;6.60;4.32;;;;;;;12.74;100.00;101771.00;4979563;28;20031;-87
2023/07/07 04:30:11;;;;;;;8.57;4.40;;;;;;;12.82;100.00;101780.88;4978931;28;20030;-87
2023/07/07 04:32:38;;;;;;;8.87;4.63;;;;;;;12.86;100.00;101781.28;4979632;28;20475;-86
2023/07/07 04:35:04;;;;;;;10.80;4.50;;;;;;;12.89;100.00;101775.41;4963384;28;20060;-87
2023/07/07 04:37:30;;;;;;;8.57;4.85;;;;;;;12.94;100.00;101784.63;4996678;28;20081;-86
2023/07/07 04:39:56;;;;;;;8.95;4.80;;;;;;;12.97;100.00;101777.94;4979288;28;20139;-86
2023/07/07 04:42:25;;;;;;;8.70;4.77;;;;;;;13.03;100.00;101774.38;4996316;28;20042;-86
2023/07/07 04:44:51;;;;;;;8.60;5.00;;;;;;;13.10;100.00;101777.94;4996623;28;20029;-86
2023/07/07 04:47:16;;;;;;;8.90;5.50;;;;;;;13.15;100.00;101778.16;4947874;28;20042;-87
2023/07/07 04:49:41;;;;;;;8.60;5.27;;;;;;;13.20;100.00;101776.69;4979107;28;20475;-86
2023/07/07 04:52:07;;;;;;;9.48;5.20;;;;;;;13.28;100.00;101776.47;4995016;28;20034;-86
2023/07/07 04:54:35;;;;;;;9.13;4.90;;;;;;;13.34;100.00;101778.38;4979070;28;20054;-87
2023/07/07 04:57:03;;;;;;;9.00;4.70;;;;;;;13.41;100.00;101768.31;4978918;28;20027;-86
2023/07/07 04:59:30;;;;;;;11.00;5.65;;;;;;;13.45;100.00;101775.03;4996387;28;20035;-86
2023/07/07 05:01:56;;;;;;;9.43;5.88;;;;;;;13.49;100.00;101776.28;4979002;28;20046;-86
2023/07/07 05:04:31;;;;;;;14.53;5.80;;;;;;;13.57;100.00;101779.81;4994680;28;20410;-87
2023/07/07 05:07:00;;;;;;;10.30;5.60;;;;;;;13.63;100.00;101771.63;4975377;28;20078;-86
2023/07/07 05:09:25;;;;;;;10.20;5.90;;;;;;;13.69;100.00;101778.94;4975589;28;20046;-86
2023/07/07 05:11:51;;;;;;;14.80;6.13;;;;;;;13.78;100.00;101781.47;4975037;28;20035;-86
2023/07/07 05:14:16;;;;;;;10.73;5.77;;;;;;;13.88;100.00;101778.25;4976699;28;20035;-87
2023/07/07 05:16:42;;;;;;;14.47;5.77;;;;;;;13.94;100.00;101783.72;4943418;28;20142;-86
2023/07/07 05:19:07;;;;;;;10.97;5.13;;;;;;;14.03;100.00;101773.41;4975024;28;20129;-86
2023/07/07 05:21:33;;;;;;;8.07;4.78;;;;;;;14.11;100.00;101780.50;4975341;28;20019;-86
2023/07/07 05:23:59;;;;;;;9.10;4.83;;;;;;;14.17;100.00;101775.03;4977169;28;20126;-87
2023/07/07 05:26:29;;;;;;;10.90;5.40;;;;;;;14.26;100.00;101782.94;4991596;28;20270;-86
2023/07/07 05:29:00;;;;;;;10.32;4.70;;;;;;;14.34;100.00;101782.72;4975038;28;20097;-87
2023/07/07 05:31:26;;;;;;;9.93;4.53;;;;;;;14.42;100.00;101776.97;4975107;28;20122;-86
2023/07/07 05:33:51;;;;;;;9.33;4.63;;;;;;;14.49;99.42;101776.97;4974770;28;20058;-87
2023/07/07 05:36:17;;;;;;;7.53;4.43;;;;;;;14.58;99.75;101783.81;4975611;28;20047;-90
2023/07/07 05:38:42;;;;;;;6.82;4.18;;;;;;;14.67;98.83;101777.06;4992160;28;20034;-92
2023/07/07 05:41:09;;;;;;;11.07;4.97;;;;;;;14.77;97.75;101778.50;4959807;28;20121;-95
2023/07/07 05:43:38;;;;;;;13.35;5.18;;;;;;;14.85;97.55;101780.94;4992271;28;20031;-94
2023/07/07 05:46:11;;;;;;;6.40;4.13;;;;;;;14.93;96.26;101788.88;4992475;28;20069;-94
2023/07/07 05:48:37;;;;;;;9.23;4.10;;;;;;;15.02;95.41;101794.91;4978260;28;20140;-94
2023/07/07 05:51:22;;;;;;;10.17;4.03;;;;;;;15.11;95.27;101788.13;4993423;28;20023;-94
2023/07/07 05:53:47;;;;;;;9.40;4.15;;;;;;;15.21;94.29;101784.88;4977390;28;20026;-95
2023/07/07 05:56:18;;;;;;;8.53;4.13;;;;;;;15.29;93.58;101784.59;4978388;28;20518;-94
2023/07/07 05:58:43;;;;;;;7.68;3.60;;;;;;;15.37;92.95;101786.22;4993107;28;20031;-92
2023/07/07 06:01:10;;;;;;;7.70;3.70;;;;;;;15.45;92.71;101783.19;4977891;28;20046;-94
2023/07/07 06:03:37;;;;;;;7.75;3.50;;;;;;;15.54;90.91;101784.56;4961087;28;20089;-95
2023/07/07 06:06:05;;;;;;;10.23;3.25;;;;;;;15.65;90.04;101784.88;4994085;28;20034;-93
2023/07/07 06:08:34;;;;;;;6.60;3.13;;;;;;;15.76;88.47;101790.44;4948181;28;20030;-94
2023/07/07 06:10:59;;;;;;;5.72;3.15;;;;;;;15.87;87.89;101783.41;4979901;28;20078;-94
2023/07/07 06:13:35;;;;;;;;;;;;;;;;;;;;;
2023/07/07 06:16:04;;;;;;;6.50;2.60;;;;;;;16.03;86.25;101786.59;4997491;28;20038;-95
2023/07/07 06:18:29;;;;;;;7.90;3.30;;;;;;;16.10;85.37;101779.13;4995662;28;20117;-95
2023/07/07 06:21:03;;;;;;;7.10;2.97;;;;;;;16.20;84.60;101784.91;4996712;28;20068;-96
2023/07/07 06:23:33;;;;;;;6.70;3.05;;;;;;;16.28;84.94;101776.38;4979537;28;20438;-95
2023/07/07 06:26:01;;;;;;;5.73;2.60;;;;;;;16.40;84.09;101781.91;4962943;28;20514;-96
2023/07/07 06:28:26;;;;;;;9.95;3.00;;;;;;;16.49;82.43;101785.16;4978945;28;20050;-95
2023/07/07 06:30:52;;;;;;;4.32;2.85;;;;;;;16.58;81.14;101786.50;4995207;28;20061;-95
2023/07/07 06:33:25;;;;;;;5.63;2.87;;;;;;;16.75;79.63;101786.66;4994714;28;20069;-95
2023/07/07 06:35:54;;;;;;;8.18;2.90;;;;;;;16.90;77.92;101789.00;4995519;28;20105;-95
2023/07/07 06:38:22;;;;;;;8.15;2.88;;;;;;;16.99;77.67;101792.22;4978753;28;20483;-95
2023/07/07 06:40:48;;;;;;;7.72;2.70;;;;;;;17.04;77.43;101791.53;4962396;28;20121;-94
2023/07/07 06:43:17;;;;;;;4.80;2.40;;;;;;;17.10;77.67;101783.19;4978692;28;20117;-93
2023/07/07 06:45:46;;;;;;;4.93;2.80;;;;;;;17.17;76.75;101794.91;4995365;28;20463;-96
2023/07/07 06:48:11;;;;;;;7.93;2.95;;;;;;;17.25;76.45;101792.88;4946985;28;20054;-96
2023/07/07 06:50:41;;;;;;;4.63;2.80;;;;;;;17.34;75.96;101803.25;4994366;28;20062;-94
2023/07/07 06:53:07;;;;;;;5.95;2.60;;;;;;;17.40;75.89;101798.72;4962372;28;20037;-94
2023/07/07 06:55:33;;;;;;;4.75;2.50;;;;;;;17.49;75.73;101797.31;4993848;28;20433;-94
2023/07/07 06:57:58;;;;;;;6.07;2.63;;;;;;;17.55;75.40;101803.72;4993956;28;20034;-94
2023/07/07 07:00:24;;;;;;;6.05;2.80;;;;;;;17.63;74.35;101803.38;4994047;28;20072;-94
2023/07/07 07:02:52;;;;;;;3.73;2.43;;;;;;;17.71;74.52;101810.41;4994454;28;20026;-95
2023/07/07 07:05:18;;;;;;;5.55;2.33;;;;;;;17.78;74.61;101804.81;4993614;28;20054;-94
2023/07/07 07:07:49;;;;;;;4.20;2.43;;;;;;;17.90;73.39;101808.38;4978371;28;20046;-95
2023/07/07 07:10:19;;;;;;;7.75;2.40;;;;;;;17.96;72.60;101803.84;4963009;28;20467;-94
2023/07/07 07:12:48;;;;;;;6.93;2.35;;;;;;;18.03;71.00;101799.88;4962274;28;20524;-94
2023/07/07 07:15:14;;;;;;;4.75;2.72;;;;;;;18.10;70.46;101805.25;4977819;28;20038;-94
2023/07/07 07:17:42;;;;;;;9.10;3.93;;;;;;;18.18;70.17;101809.53;4962027;28;20039;-94
2023/07/07 07:20:10;;;;;;;10.98;3.67;;;;;;;18.24;70.53;101809.38;4994770;28;20199;-93
2023/07/07 07:22:36;;;;;;;6.65;2.35;;;;;;;18.34;69.96;101803.25;4995057;28;20026;-93
2023/07/07 07:25:04;;;;;;;7.63;2.20;;;;;;;18.48;69.21;101816.69;4977716;28;20038;-94
2023/07/07 07:27:37;;;;;;;4.75;2.30;;;;;;;18.68;66.30;101808.84;4995187;28;20034;-93
2023/07/07 07:30:07;;;;;;;4.70;1.83;;;;;;;18.82;65.49;101809.38;4962409;28;20034;-94
2023/07/07 07:32:32;;;;;;;6.93;2.17;;;;;;;18.88;65.07;101808.44;4994292;28;20073;-93
2023/07/07 07:35:02;;;;;;;4.63;1.90;;;;;;;18.93;65.72;101807.69;4977751;28;20124;-94
2023/07/07 07:37:28;;;;;;;7.07;3.10;;;;;;;18.98;65.18;101801.44;4978620;28;20027;-93
2023/07/07 07:39:58;;;;;;;4.83;2.03;;;;;;;19.02;65.01;101814.44;4993788;28;20029;-94
2023/07/07 07:42:32;;;;;;;5.30;2.08;;;;;;;19.10;63.97;101807.69;4994159;28;20026;-94
2023/07/07 07:45:00;;;;;;;7.35;2.10;;;;;;;19.19;63.43;101806.19;4962686;28;20085;-95
2023/07/07 07:47:29;;;;;;;5.07;2.00;;;;;;;19.28;63.88;101812.09;4978102;28;20038;-94
2023/07/07 07:50:05;;;;;;;4.60;2.00;;;;;;;19.33;63.65;101801.19;4994413;28;20137;-93
2023/07/07 07:52:34;;;;;;;6.30;1.92;;;;;;;19.48;62.42;101813.53;4995287;28;20018;-94
2023/07/07 07:55:09;;;;;;;4.22;1.70;;;;;;;19.54;63.74;101810.56;4997605;28;20034;-94
2023/07/07 07:57:42;;;;;;;3.65;1.98;;;;;;;19.58;63.32;101810.91;4998539;28;20030;-94
2023/07/07 08:00:08;;;;;;;5.53;2.05;;;;;;;19.62;63.91;101812.91;4997800;28;20038;-94
2023/07/07 08:02:35;;;;;;;5.60;1.97;;;;;;;19.67;63.66;101814.06;4997811;28;20041;-95
2023/07/07 08:05:01;;;;;;;4.68;1.90;;;;;;;19.71;63.39;101816.06;4998104;28;20344;-94
2023/07/07 08:07:26;;;;;;;3.65;1.90;;;;;;;19.82;63.17;101816.25;4980783;28;20113;-94
2023/07/07 08:09:54;;;;;;;5.43;2.10;;;;;;;19.89;62.18;101823.22;4980875;28;20470;-94
2023/07/07 08:12:19;;;;;;;3.75;2.00;;;;;;;19.97;61.94;101811.78;4965129;28;20129;-94
2023/07/07 08:14:45;;;;;;;5.50;2.00;;;;;;;20.08;61.56;101817.41;4965250;28;20026;-94
2023/07/07 08:17:12;;;;;;;6.60;2.10;;;;;;;20.17;60.78;101818.63;4997028;28;20289;-95
2023/07/07 08:19:43;;;;;;;4.53;2.00;;;;;;;20.31;60.14;101813.53;4980953;28;20034;-94
2023/07/07 08:22:12;;;;;;;2.80;1.90;;;;;;;20.45;59.78;101816.75;4981646;28;20031;-93
2023/07/07 08:24:43;;;;;;;4.38;2.05;;;;;;;20.57;58.41;101819.38;4980259;28;20046;-94
2023/07/07 08:27:11;;;;;;;3.40;2.05;;;;;;;20.65;59.49;101816.97;4980950;28;20154;-94
2023/07/07 08:29:38;;;;;;;4.63;2.17;;;;;;;20.71;59.13;101815.13;4964855;28;20038;-94
2023/07/07 08:32:07;;;;;;;5.55;2.10;;;;;;;20.82;58.82;101816.88;4980676;28;20145;-94
2023/07/07 08:34:39;;;;;;;3.17;1.70;;;;;;;20.97;57.74;101812.63;4964323;28;20176;-94
2023/07/07 08:37:05;;;;;;;5.18;2.15;;;;;;;21.01;57.74;101813.75;4996927;28;20037;-95
2023/07/07 08:39:31;;;;;;;4.00;1.80;;;;;;;21.08;57.79;101813.53;4980936;28;20078;-96
2023/07/07 08:42:06;;;;;;;4.57;2.15;;;;;;;21.18;57.25;101817.19;4996720;28;20164;-94
2023/07/07 08:44:34;;;;;;;3.35;2.10;;;;;;;21.31;55.83;101809.59;4996917;28;20459;-95
2023/07/07 08:47:32;;;;;;;7.20;2.10;;;;;;;21.42;57.91;101814.09;4996155;28;20077;-95
2023/07/07 08:50:07;;;;;;;7.53;2.72;;;;;;;21.50;56.33;101815.50;4996409;28;20145;-95
2023/07/07 08:52:46;;;;;;;3.95;2.17;;;;;;;21.61;54.23;101813.69;4980961;28;20038;-94
2023/07/07 08:55:55;;;;;;;2.13;1.73;;;;;;;21.70;55.14;101815.69;4997735;28;20037;-95
2023/07/07 08:58:30;;;;;;;6.07;2.10;;;;;;;21.84;54.44;101807.72;4997398;28;20382;-94
2023/07/07 09:01:21;;;;;;;3.97;1.87;;;;;;;21.96;54.41;101820.50;4980871;28;20033;-95
2023/07/07 09:04:24;;;;;;;6.07;2.00;;;;;;;22.02;54.05;101816.66;4997484;28;20068;-95
2023/07/07 09:07:04;;;;;;;7.80;2.08;;;;;;;22.14;51.94;101814.50;4979985;28;20081;-95
2023/07/07 09:10:06;;;;;;;5.75;2.20;;;;;;;22.21;51.79;101812.31;4980146;28;20038;-95
2023/07/07 09:12:46;;;;;;;5.57;2.22;;;;;;;22.34;52.33;101815.72;4980235;28;20129;-96
2023/07/07 09:15:35;;;;;;;3.03;1.80;;;;;;;22.42;50.87;101815.19;4997311;28;20034;-94
2023/07/07 09:18:25;;;;;;;3.28;2.35;;;;;;;22.53;50.58;101813.25;4996739;28;20053;-95
2023/07/07 09:21:00;;;;;;;4.63;2.10;;;;;;;22.68;48.34;101809.72;4996160;28;20026;-95
2023/07/07 09:23:34;;;;;;;4.65;2.00;;;;;;;22.80;48.41;101807.53;4979630;28;20073;-95
2023/07/07 09:26:29;;;;;;;3.70;2.22;;;;;;;22.90;47.68;101815.84;4995978;28;20038;-95
2023/07/07 09:29:01;;;;;;;3.67;1.97;;;;;;;23.01;46.71;101815.84;4971023;28;20046;-95
2023/07/07 09:31:31;;;;;;;4.22;1.85;;;;;;;23.20;44.46;101811.44;4996949;28;20066;-95
2023/07/07 09:34:13;;;;;;;5.20;2.05;;;;;;;23.32;43.90;101816.69;4995944;28;20410;-95
2023/07/07 09:37:05;;;;;;;3.08;1.85;;;;;;;23.46;46.09;101808.66;4979908;28;20034;-95
2023/07/07 09:40:04;;;;;;;4.45;2.03;;;;;;;23.59;46.08;101805.31;4980044;28;20038;-94
2023/07/07 09:42:52;;;;;;;4.37;2.10;;;;;;;23.70;46.67;101803.31;4996334;28;20518;-95
2023/07/07 09:45:59;;;;;;;3.92;2.42;;;;;;;23.81;46.53;101793.03;4996381;28;20090;-95
2023/07/07 09:48:53;;;;;;;4.30;2.30;;;;;;;23.95;44.46;101788.59;4979225;28;20034;-95
2023/07/07 09:51:42;;;;;;;2.80;2.00;;;;;;;24.08;45.58;101789.94;4979289;28;20030;-95
2023/07/07 09:54:15;;;;;;;5.57;2.08;;;;;;;24.21;43.99;101796.78;4979502;28;20041;-95
2023/07/07 09:56:56;;;;;;;5.13;2.40;;;;;;;24.31;44.00;101784.81;4996338;28;20062;-94
2023/07/07 09:59:33;;;;;;;10.95;2.25;;;;;;;24.45;41.68;101779.47;4979422;28;20030;-95
2023/07/07 10:02:05;;;;;;;5.07;2.17;;;;;;;24.54;41.69;101777.75;4996882;28;20034;-95
2023/07/07 10:04:43;;;;;;;4.68;2.05;;;;;;;24.66;41.62;101785.75;4963805;28;20101;-95
2023/07/07 10:07:15;;;;;;;4.40;2.25;;;;;;;24.80;42.04;101786.75;4975256;28;20062;-94
2023/07/07 10:09:43;;;;;;;4.77;2.00;;;;;;;24.94;41.66;101781.34;4975920;28;20097;-95
2023/07/07 10:12:15;;;;;;;4.20;2.30;;;;;;;25.11;41.27;101782.88;4976091;28;20137;-95
2023/07/07 10:14:50;;;;;;;4.82;2.10;;;;;;;25.24;41.47;101778.59;4991691;28;20058;-94
2023/07/07 10:17:50;;;;;;;4.43;2.20;;;;;;;25.41;41.93;101770.69;4960072;28;20058;-96
2023/07/07 10:20:16;;;;;;;6.75;2.20;;;;;;;25.55;39.92;101774.41;4991657;28;20022;-95
2023/07/07 10:22:44;;;;;;;4.73;2.80;;;;;;;25.73;40.03;101770.03;4959169;28;20368;-95
2023/07/07 10:25:16;;;;;;;4.45;2.17;;;;;;;25.85;40.43;101771.56;4958954;28;20026;-96
2023/07/07 10:27:52;;;;;;;4.07;2.50;;;;;;;26.04;40.73;101763.28;4991992;28;20419;-95
2023/07/07 10:30:25;;;;;;;5.18;2.25;;;;;;;26.21;39.37;101771.13;4975430;28;20494;-96
2023/07/07 10:33:00;;;;;;;6.03;2.30;;;;;;;26.36;38.22;101767.31;4976117;28;20210;-96
2023/07/07 10:35:26;;;;;;;3.88;2.45;;;;;;;26.41;37.59;101764.44;4975713;28;20030;-96
2023/07/07 10:37:51;;;;;;;4.60;2.20;;;;;;;26.52;37.03;101768.72;4975169;28;20392;-95
2023/07/07 10:40:25;;;;;;;6.20;2.10;;;;;;;26.67;38.65;101766.84;4991687;28;20022;-86
2023/07/07 10:42:53;;;;;;;4.47;2.30;;;;;;;26.81;38.15;101766.91;4974015;28;20431;-86
2023/07/07 10:45:18;;;;;;;2.92;2.10;;;;;;;27.02;37.02;101765.44;4973641;28;20067;-86
2023/07/07 10:47:44;;;;;;;2.87;2.17;;;;;;;27.25;37.32;101758.09;4957480;28;20531;-87
2023/07/07 10:50:21;;;;;;;5.03;2.10;;;;;;;27.47;38.38;101759.34;4973844;28;20038;-87
2023/07/07 10:52:50;;;;;;;3.85;2.33;;;;;;;27.66;36.01;101753.69;4975100;28;20037;-86
2023/07/07 10:55:27;;;;;;;4.15;2.78;;;;;;;27.88;36.60;101752.13;4973550;28;20066;-86
2023/07/07 10:57:55;;;;;;;3.50;2.50;;;;;;;28.13;35.44;101753.56;4990596;28;20022;-87
2023/07/07 11:00:39;;;;;;;4.88;2.50;;;;;;;28.30;35.34;101759.31;4973547;28;20073;-87
2023/07/07 11:03:37;;;;;;;3.67;2.67;;;;;;;28.58;35.64;101747.22;4975067;28;20023;-86
2023/07/07 11:06:14;;;;;;;4.97;2.60;;;;;;;28.75;34.74;101741.78;4989617;28;20110;-86
2023/07/07 11:09:04;;;;;;;4.32;2.45;;;;;;;29.06;34.22;101746.59;4994279;28;20039;-86
2023/07/07 11:12:01;;;;;;;4.13;2.55;;;;;;;29.30;32.28;101748.22;4977070;28;20034;-86
2023/07/07 11:14:38;;;;;;;5.78;2.60;;;;;;;29.44;28.43;101748.94;4993174;28;20037;-86
2023/07/07 11:17:18;;;;;;;7.30;2.77;;;;;;;29.69;30.32;101746.53;4976411;28;20038;-87
2023/07/07 11:20:29;;;;;;;3.17;2.45;;;;;;;29.65;29.91;101748.38;4976442;28;20058;-86
2023/07/07 11:22:54;;;;;;;5.85;2.72;;;;;;;29.93;27.86;101746.16;4994156;28;20057;-86
2023/07/07 11:25:49;;;;;;;2.83;2.57;;;;;;;31.29;29.45;101740.31;4976591;28;20058;-86
2023/07/07 11:28:33;;;;;;;4.50;2.70;;;;;;;34.79;23.78;101735.69;4994634;28;20080;-86
2023/07/07 11:31:10;;;;;;;4.78;2.70;;;;;;;37.57;23.27;101731.22;4981081;28;20363;-86
2023/07/07 11:33:45;;;;;;;5.45;2.72;;;;;;;40.03;18.21;101720.44;4997671;28;20030;-86
2023/07/07 11:36:28;;;;;;;3.73;2.87;;;;;;;42.37;19.91;101721.25;4996583;28;20034;-86
2023/07/07 11:39:06;;;;;;;5.47;3.00;;;;;;;43.96;16.71;101711.38;4980851;28;20026;-86
2023/07/07 11:41:45;;;;;;;3.75;2.95;;;;;;;45.16;16.29;101708.41;4980301;28;20035;-86